sensor_id;sensor_type;location;lat;lon;timestamp;temperature;humidity
74809;DHT22;63338;39.544;2.596;2023-09-19T00:08:50;22.80;78.20
74809;DHT22;63338;39.544;2.596;2023-09-19T00:11:33;22.80;78.10
74809;DHT22;63338;39.544;2.596;2023-09-19T00:14:30;22.70;78.20
74809;DHT22;63338;39.544;2.596;2023-09-19T00:17:45;22.70;78.20
74809;DHT22;63338;39.544;2.596;2023-09-19T00:20:56;22.80;78.20
74809;DHT22;63338;39.544;2.596;2023-09-19T00:23:45;22.80;78.20
74809;DHT22;63338;39.544;2.596;2023-09-19T00:31:11;22.70;78.00
74809;DHT22;63338;39.544;2.596;2023-09-19T00:37:28;22.60;78.00
74809;DHT22;63338;39.544;2.596;2023-09-19T00:48:15;22.50;78.00
74809;DHT22;63338;39.544;2.596;2023-09-19T00:51:19;22.40;77.80
74809;DHT22;63338;39.544;2.596;2023-09-19T00:54:40;22.40;77.80
74809;DHT22;63338;39.544;2.596;2023-09-19T00:58:01;22.40;77.90
74809;DHT22;63338;39.544;2.596;2023-09-19T01:01:35;22.30;78.20
74809;DHT22;63338;39.544;2.596;2023-09-19T01:04:49;22.40;78.20
74809;DHT22;63338;39.544;2.596;2023-09-19T01:11:47;22.30;78.60
74809;DHT22;63338;39.544;2.596;2023-09-19T01:36:14;22.20;78.00
74809;DHT22;63338;39.544;2.596;2023-09-19T01:39:28;22.30;77.50
74809;DHT22;63338;39.544;2.596;2023-09-19T01:51:18;22.10;77.30
74809;DHT22;63338;39.544;2.596;2023-09-19T01:54:19;22.10;77.40
74809;DHT22;63338;39.544;2.596;2023-09-19T01:57:30;22.10;77.50
74809;DHT22;63338;39.544;2.596;2023-09-19T02:00:37;22.00;77.50
74809;DHT22;63338;39.544;2.596;2023-09-19T02:03:34;22.00;77.20
74809;DHT22;63338;39.544;2.596;2023-09-19T02:10:28;22.00;77.30
74809;DHT22;63338;39.544;2.596;2023-09-19T02:13:43;21.90;77.00
74809;DHT22;63338;39.544;2.596;2023-09-19T02:16:41;21.90;76.30
74809;DHT22;63338;39.544;2.596;2023-09-19T02:19:54;21.90;76.30
74809;DHT22;63338;39.544;2.596;2023-09-19T02:22:30;21.90;76.40
74809;DHT22;63338;39.544;2.596;2023-09-19T02:25:03;21.90;76.40
74809;DHT22;63338;39.544;2.596;2023-09-19T02:27:58;21.90;76.10
74809;DHT22;63338;39.544;2.596;2023-09-19T02:30:53;22.00;76.10
74809;DHT22;63338;39.544;2.596;2023-09-19T02:33:20;21.80;76.00
74809;DHT22;63338;39.544;2.596;2023-09-19T02:40:58;21.80;76.10
74809;DHT22;63338;39.544;2.596;2023-09-19T02:43:55;21.80;76.00
74809;DHT22;63338;39.544;2.596;2023-09-19T02:50:01;21.90;76.10
74809;DHT22;63338;39.544;2.596;2023-09-19T02:52:46;21.80;76.00
74809;DHT22;63338;39.544;2.596;2023-09-19T02:59:27;21.80;76.70
74809;DHT22;63338;39.544;2.596;2023-09-19T03:02:14;21.80;76.80
74809;DHT22;63338;39.544;2.596;2023-09-19T03:05:40;21.80;77.10
74809;DHT22;63338;39.544;2.596;2023-09-19T03:08:19;21.80;77.30
74809;DHT22;63338;39.544;2.596;2023-09-19T03:17:12;21.80;77.50
74809;DHT22;63338;39.544;2.596;2023-09-19T03:20:07;21.90;77.30
74809;DHT22;63338;39.544;2.596;2023-09-19T03:22:47;21.80;77.60
74809;DHT22;63338;39.544;2.596;2023-09-19T03:28:43;21.70;78.00
74809;DHT22;63338;39.544;2.596;2023-09-19T03:31:25;21.80;78.40
74809;DHT22;63338;39.544;2.596;2023-09-19T03:34:16;21.70;78.60
74809;DHT22;63338;39.544;2.596;2023-09-19T03:36:45;21.80;78.70
74809;DHT22;63338;39.544;2.596;2023-09-19T03:39:41;21.70;78.70
74809;DHT22;63338;39.544;2.596;2023-09-19T03:42:54;21.70;78.80
74809;DHT22;63338;39.544;2.596;2023-09-19T03:50:08;21.70;79.10
74809;DHT22;63338;39.544;2.596;2023-09-19T03:53:10;21.70;78.90
74809;DHT22;63338;39.544;2.596;2023-09-19T03:59:46;21.70;78.60
74809;DHT22;63338;39.544;2.596;2023-09-19T04:03:07;21.70;78.50
74809;DHT22;63338;39.544;2.596;2023-09-19T04:06:08;21.80;78.20
74809;DHT22;63338;39.544;2.596;2023-09-19T04:09:07;21.70;78.20
74809;DHT22;63338;39.544;2.596;2023-09-19T04:12:07;21.70;78.10
74809;DHT22;63338;39.544;2.596;2023-09-19T04:15:01;21.80;78.00
74809;DHT22;63338;39.544;2.596;2023-09-19T04:18:01;21.90;79.90
74809;DHT22;63338;39.544;2.596;2023-09-19T04:21:14;22.10;80.20
74809;DHT22;63338;39.544;2.596;2023-09-19T04:43:06;22.70;78.00
74809;DHT22;63338;39.544;2.596;2023-09-19T04:45:59;22.70;77.60
74809;DHT22;63338;39.544;2.596;2023-09-19T04:49:51;22.80;77.50
74809;DHT22;63338;39.544;2.596;2023-09-19T05:16:12;23.40;74.80
74809;DHT22;63338;39.544;2.596;2023-09-19T09:24:58;28.80;67.70
74809;DHT22;63338;39.544;2.596;2023-09-19T09:47:06;29.50;66.20
74809;DHT22;63338;39.544;2.596;2023-09-19T10:44:28;27.20;72.90
74809;DHT22;63338;39.544;2.596;2023-09-19T10:47:30;27.10;73.40
74809;DHT22;63338;39.544;2.596;2023-09-19T10:54:25;27.00;74.10
74809;DHT22;63338;39.544;2.596;2023-09-19T10:57:43;27.10;74.00
74809;DHT22;63338;39.544;2.596;2023-09-19T11:01:00;27.10;74.00
74809;DHT22;63338;39.544;2.596;2023-09-19T11:04:24;27.10;74.50
74809;DHT22;63338;39.544;2.596;2023-09-19T11:19:16;27.40;73.00
74809;DHT22;63338;39.544;2.596;2023-09-19T11:25:42;27.30;72.00
74809;DHT22;63338;39.544;2.596;2023-09-19T11:29:26;27.40;72.90
74809;DHT22;63338;39.544;2.596;2023-09-19T11:32:14;27.40;73.70
74809;DHT22;63338;39.544;2.596;2023-09-19T11:35:26;27.40;73.40
74809;DHT22;63338;39.544;2.596;2023-09-19T11:43:32;27.30;72.30
74809;DHT22;63338;39.544;2.596;2023-09-19T11:46:56;27.40;71.20
74809;DHT22;63338;39.544;2.596;2023-09-19T11:49:49;27.40;71.40
74809;DHT22;63338;39.544;2.596;2023-09-19T11:52:50;27.50;71.00
74809;DHT22;63338;39.544;2.596;2023-09-19T11:56:27;27.50;71.50
74809;DHT22;63338;39.544;2.596;2023-09-19T11:59:41;27.50;70.90
74809;DHT22;63338;39.544;2.596;2023-09-19T12:03:08;27.60;71.40
74809;DHT22;63338;39.544;2.596;2023-09-19T12:06:16;27.50;70.40
74809;DHT22;63338;39.544;2.596;2023-09-19T12:09:19;27.60;70.50
74809;DHT22;63338;39.544;2.596;2023-09-19T12:12:36;27.60;71.00
74809;DHT22;63338;39.544;2.596;2023-09-19T12:15:41;27.70;70.80
74809;DHT22;63338;39.544;2.596;2023-09-19T12:18:37;27.70;70.50
74809;DHT22;63338;39.544;2.596;2023-09-19T12:22:01;27.70;70.60
74809;DHT22;63338;39.544;2.596;2023-09-19T12:25:15;27.60;71.20
74809;DHT22;63338;39.544;2.596;2023-09-19T12:40:07;27.50;71.60
74809;DHT22;63338;39.544;2.596;2023-09-19T12:46:33;27.40;73.20
74809;DHT22;63338;39.544;2.596;2023-09-19T13:25:44;26.40;81.90
74809;DHT22;63338;39.544;2.596;2023-09-19T13:29:03;26.20;83.30
74809;DHT22;63338;39.544;2.596;2023-09-19T13:36:02;25.70;86.30
74809;DHT22;63338;39.544;2.596;2023-09-19T13:50:31;24.40;90.20
74809;DHT22;63338;39.544;2.596;2023-09-19T13:53:50;24.40;90.80
74809;DHT22;63338;39.544;2.596;2023-09-19T13:56:49;24.20;91.20
74809;DHT22;63338;39.544;2.596;2023-09-19T14:03:29;23.80;92.40
74809;DHT22;63338;39.544;2.596;2023-09-19T14:07:03;23.40;92.50
74809;DHT22;63338;39.544;2.596;2023-09-19T14:10:13;23.00;92.40
74809;DHT22;63338;39.544;2.596;2023-09-19T14:13:29;22.70;92.40
74809;DHT22;63338;39.544;2.596;2023-09-19T14:16:22;22.60;93.20
74809;DHT22;63338;39.544;2.596;2023-09-19T14:19:15;22.70;93.40
